sensor_id;sensor_type;location;lat;lon;timestamp;temperature;humidity
14471;DHT22;7321;50.802;4.336;2024-01-30T00:01:39;12.30;99.90
14471;DHT22;7321;50.802;4.336;2024-01-30T00:04:05;12.30;99.90
14471;DHT22;7321;50.802;4.336;2024-01-30T00:06:33;12.30;99.90
14471;DHT22;7321;50.802;4.336;2024-01-30T00:08:59;12.30;99.90
14471;DHT22;7321;50.802;4.336;2024-01-30T00:11:25;12.40;99.90
14471;DHT22;7321;50.802;4.336;2024-01-30T00:13:54;12.40;99.90
14471;DHT22;7321;50.802;4.336;2024-01-30T00:16:25;12.40;99.90
14471;DHT22;7321;50.802;4.336;2024-01-30T00:18:51;12.50;99.90
14471;DHT22;7321;50.802;4.336;2024-01-30T00:21:18;12.50;99.90
14471;DHT22;7321;50.802;4.336;2024-01-30T00:23:44;12.50;99.90
14471;DHT22;7321;50.802;4.336;2024-01-30T00:26:10;12.50;99.90
14471;DHT22;7321;50.802;4.336;2024-01-30T00:28:40;12.50;99.90
14471;DHT22;7321;50.802;4.336;2024-01-30T00:31:08;12.40;99.90
14471;DHT22;7321;50.802;4.336;2024-01-30T00:33:38;12.40;99.90
14471;DHT22;7321;50.802;4.336;2024-01-30T00:36:05;12.30;99.90
14471;DHT22;7321;50.802;4.336;2024-01-30T00:38:32;12.30;99.90
14471;DHT22;7321;50.802;4.336;2024-01-30T00:40:58;12.40;99.90
14471;DHT22;7321;50.802;4.336;2024-01-30T00:43:24;12.50;99.90
14471;DHT22;7321;50.802;4.336;2024-01-30T00:45:53;12.60;99.90
14471;DHT22;7321;50.802;4.336;2024-01-30T00:48:19;12.50;99.90
14471;DHT22;7321;50.802;4.336;2024-01-30T00:50:47;12.50;99.90
14471;DHT22;7321;50.802;4.336;2024-01-30T00:53:13;12.50;99.90
14471;DHT22;7321;50.802;4.336;2024-01-30T00:55:38;12.60;99.90
14471;DHT22;7321;50.802;4.336;2024-01-30T00:58:05;12.60;99.90
14471;DHT22;7321;50.802;4.336;2024-01-30T01:00:31;12.80;99.90
14471;DHT22;7321;50.802;4.336;2024-01-30T01:02:58;12.70;99.90
14471;DHT22;7321;50.802;4.336;2024-01-30T01:05:24;12.60;99.90
14471;DHT22;7321;50.802;4.336;2024-01-30T01:07:50;12.80;99.90
14471;DHT22;7321;50.802;4.336;2024-01-30T01:10:19;12.80;99.90
14471;DHT22;7321;50.802;4.336;2024-01-30T01:12:46;12.90;99.90
14471;DHT22;7321;50.802;4.336;2024-01-30T01:15:12;12.80;99.90
14471;DHT22;7321;50.802;4.336;2024-01-30T01:17:38;12.80;99.90
14471;DHT22;7321;50.802;4.336;2024-01-30T01:20:06;12.60;99.90
14471;DHT22;7321;50.802;4.336;2024-01-30T01:22:33;12.60;99.90
14471;DHT22;7321;50.802;4.336;2024-01-30T01:25:00;12.60;99.90
14471;DHT22;7321;50.802;4.336;2024-01-30T01:27:27;12.70;99.90
14471;DHT22;7321;50.802;4.336;2024-01-30T01:29:53;12.70;99.90
14471;DHT22;7321;50.802;4.336;2024-01-30T01:32:19;12.60;99.90
14471;DHT22;7321;50.802;4.336;2024-01-30T01:34:45;12.70;99.90
14471;DHT22;7321;50.802;4.336;2024-01-30T01:37:11;12.70;99.90
14471;DHT22;7321;50.802;4.336;2024-01-30T01:39:37;12.70;99.90
14471;DHT22;7321;50.802;4.336;2024-01-30T01:42:03;12.70;99.90
14471;DHT22;7321;50.802;4.336;2024-01-30T01:44:29;12.80;99.90
14471;DHT22;7321;50.802;4.336;2024-01-30T01:46:55;12.90;99.90
14471;DHT22;7321;50.802;4.336;2024-01-30T01:49:24;13.00;99.90
14471;DHT22;7321;50.802;4.336;2024-01-30T01:51:52;12.80;99.90
14471;DHT22;7321;50.802;4.336;2024-01-30T01:54:19;12.80;99.90
14471;DHT22;7321;50.802;4.336;2024-01-30T01:56:46;12.80;99.90
14471;DHT22;7321;50.802;4.336;2024-01-30T01:59:11;12.90;99.90
14471;DHT22;7321;50.802;4.336;2024-01-30T02:01:38;12.90;99.90
14471;DHT22;7321;50.802;4.336;2024-01-30T02:04:04;12.80;99.90
14471;DHT22;7321;50.802;4.336;2024-01-30T02:06:31;12.90;99.90
14471;DHT22;7321;50.802;4.336;2024-01-30T02:08:57;13.00;99.90
14471;DHT22;7321;50.802;4.336;2024-01-30T02:11:23;13.00;99.90
14471;DHT22;7321;50.802;4.336;2024-01-30T02:13:50;13.00;99.90
14471;DHT22;7321;50.802;4.336;2024-01-30T02:16:16;13.00;99.90
14471;DHT22;7321;50.802;4.336;2024-01-30T02:18:45;12.90;99.90
14471;DHT22;7321;50.802;4.336;2024-01-30T02:21:16;12.80;99.90
14471;DHT22;7321;50.802;4.336;2024-01-30T02:23:47;12.90;99.90
14471;DHT22;7321;50.802;4.336;2024-01-30T02:26:14;13.00;99.90
14471;DHT22;7321;50.802;4.336;2024-01-30T02:28:39;13.00;99.90
14471;DHT22;7321;50.802;4.336;2024-01-30T02:31:05;13.00;99.90
14471;DHT22;7321;50.802;4.336;2024-01-30T02:33:32;13.10;99.90
14471;DHT22;7321;50.802;4.336;2024-01-30T02:35:57;13.10;99.90
14471;DHT22;7321;50.802;4.336;2024-01-30T02:38:24;13.10;99.90
14471;DHT22;7321;50.802;4.336;2024-01-30T02:40:50;13.00;99.90
14471;DHT22;7321;50.802;4.336;2024-01-30T02:43:16;13.00;99.90
14471;DHT22;7321;50.802;4.336;2024-01-30T02:45:42;13.00;99.90
14471;DHT22;7321;50.802;4.336;2024-01-30T02:48:08;13.00;99.90
14471;DHT22;7321;50.802;4.336;2024-01-30T02:50:34;13.00;99.90
14471;DHT22;7321;50.802;4.336;2024-01-30T02:53:00;13.10;99.90
14471;DHT22;7321;50.802;4.336;2024-01-30T02:55:25;13.10;99.90
14471;DHT22;7321;50.802;4.336;2024-01-30T02:57:51;13.00;99.90
14471;DHT22;7321;50.802;4.336;2024-01-30T03:00:20;12.90;99.90
14471;DHT22;7321;50.802;4.336;2024-01-30T03:02:45;13.00;99.90
14471;DHT22;7321;50.802;4.336;2024-01-30T03:05:11;13.00;99.90
14471;DHT22;7321;50.802;4.336;2024-01-30T03:07:37;13.00;99.90
14471;DHT22;7321;50.802;4.336;2024-01-30T03:10:06;13.10;99.90
14471;DHT22;7321;50.802;4.336;2024-01-30T03:12:32;13.00;99.90
14471;DHT22;7321;50.802;4.336;2024-01-30T03:14:58;12.90;99.90
14471;DHT22;7321;50.802;4.336;2024-01-30T03:17:24;12.80;99.90
14471;DHT22;7321;50.802;4.336;2024-01-30T03:19:50;12.80;99.90
14471;DHT22;7321;50.802;4.336;2024-01-30T03:22:16;12.70;99.90
14471;DHT22;7321;50.802;4.336;2024-01-30T03:24:43;12.70;99.90
14471;DHT22;7321;50.802;4.336;2024-01-30T03:27:09;12.70;99.90
14471;DHT22;7321;50.802;4.336;2024-01-30T03:29:34;12.80;99.90
14471;DHT22;7321;50.802;4.336;2024-01-30T03:32:00;12.80;99.90
14471;DHT22;7321;50.802;4.336;2024-01-30T03:34:26;12.90;99.90
14471;DHT22;7321;50.802;4.336;2024-01-30T03:36:52;12.90;99.90
14471;DHT22;7321;50.802;4.336;2024-01-30T03:39:18;12.80;99.90
14471;DHT22;7321;50.802;4.336;2024-01-30T03:41:43;12.80;99.90
14471;DHT22;7321;50.802;4.336;2024-01-30T03:44:10;12.90;99.90
14471;DHT22;7321;50.802;4.336;2024-01-30T03:46:36;12.80;99.90
14471;DHT22;7321;50.802;4.336;2024-01-30T03:49:02;12.80;99.90
14471;DHT22;7321;50.802;4.336;2024-01-30T03:51:27;12.80;99.90
14471;DHT22;7321;50.802;4.336;2024-01-30T03:53:53;12.80;99.90
14471;DHT22;7321;50.802;4.336;2024-01-30T03:56:19;12.90;99.90
14471;DHT22;7321;50.802;4.336;2024-01-30T03:58:45;12.90;99.90
14471;DHT22;7321;50.802;4.336;2024-01-30T04:01:14;13.00;99.90
14471;DHT22;7321;50.802;4.336;2024-01-30T04:03:40;13.00;99.90
14471;DHT22;7321;50.802;4.336;2024-01-30T04:06:07;12.90;99.90
14471;DHT22;7321;50.802;4.336;2024-01-30T04:08:33;13.00;99.90
14471;DHT22;7321;50.802;4.336;2024-01-30T04:10:58;13.10;99.90
14471;DHT22;7321;50.802;4.336;2024-01-30T04:13:24;12.90;99.90
14471;DHT22;7321;50.802;4.336;2024-01-30T04:15:50;12.80;99.90
14471;DHT22;7321;50.802;4.336;2024-01-30T04:18:16;12.80;99.90
14471;DHT22;7321;50.802;4.336;2024-01-30T04:20:42;12.80;99.90
14471;DHT22;7321;50.802;4.336;2024-01-30T04:23:07;12.70;99.90
14471;DHT22;7321;50.802;4.336;2024-01-30T04:25:33;12.70;99.90
14471;DHT22;7321;50.802;4.336;2024-01-30T04:27:59;12.80;99.90
14471;DHT22;7321;50.802;4.336;2024-01-30T04:30:25;12.90;99.90
14471;DHT22;7321;50.802;4.336;2024-01-30T04:32:50;13.00;99.90
14471;DHT22;7321;50.802;4.336;2024-01-30T04:35:16;13.00;99.90
14471;DHT22;7321;50.802;4.336;2024-01-30T04:37:42;13.00;99.90
14471;DHT22;7321;50.802;4.336;2024-01-30T04:40:08;13.20;99.90
14471;DHT22;7321;50.802;4.336;2024-01-30T04:42:35;13.20;99.90
14471;DHT22;7321;50.802;4.336;2024-01-30T04:45:00;13.20;99.90
14471;DHT22;7321;50.802;4.336;2024-01-30T04:47:26;13.20;99.90
14471;DHT22;7321;50.802;4.336;2024-01-30T04:49:52;13.00;99.90
14471;DHT22;7321;50.802;4.336;2024-01-30T04:52:18;12.90;99.90
14471;DHT22;7321;50.802;4.336;2024-01-30T04:54:43;13.00;99.90
14471;DHT22;7321;50.802;4.336;2024-01-30T04:57:09;13.20;99.90
14471;DHT22;7321;50.802;4.336;2024-01-30T04:59:37;13.20;99.90
14471;DHT22;7321;50.802;4.336;2024-01-30T05:02:03;13.20;99.90
14471;DHT22;7321;50.802;4.336;2024-01-30T05:04:29;13.20;99.90
14471;DHT22;7321;50.802;4.336;2024-01-30T05:06:55;13.20;99.90
14471;DHT22;7321;50.802;4.336;2024-01-30T05:09:21;13.10;99.90
14471;DHT22;7321;50.802;4.336;2024-01-30T05:11:46;13.10;99.90
14471;DHT22;7321;50.802;4.336;2024-01-30T05:14:12;13.20;99.90
14471;DHT22;7321;50.802;4.336;2024-01-30T05:16:40;13.40;99.90
14471;DHT22;7321;50.802;4.336;2024-01-30T05:19:06;13.40;99.90
14471;DHT22;7321;50.802;4.336;2024-01-30T05:21:32;13.40;99.90
14471;DHT22;7321;50.802;4.336;2024-01-30T05:23:58;13.40;99.90
14471;DHT22;7321;50.802;4.336;2024-01-30T05:26:24;13.50;99.90
14471;DHT22;7321;50.802;4.336;2024-01-30T05:28:50;13.40;99.90
14471;DHT22;7321;50.802;4.336;2024-01-30T05:31:16;13.30;99.90
14471;DHT22;7321;50.802;4.336;2024-01-30T05:33:41;13.40;99.90
14471;DHT22;7321;50.802;4.336;2024-01-30T05:36:07;13.10;99.90
14471;DHT22;7321;50.802;4.336;2024-01-30T05:38:33;13.10;99.90
14471;DHT22;7321;50.802;4.336;2024-01-30T05:40:59;13.20;99.90
14471;DHT22;7321;50.802;4.336;2024-01-30T05:43:25;13.10;99.90
14471;DHT22;7321;50.802;4.336;2024-01-30T05:45:51;13.00;99.90
14471;DHT22;7321;50.802;4.336;2024-01-30T05:48:18;12.90;99.90
14471;DHT22;7321;50.802;4.336;2024-01-30T05:50:43;12.80;99.90
14471;DHT22;7321;50.802;4.336;2024-01-30T05:53:11;12.80;99.90
14471;DHT22;7321;50.802;4.336;2024-01-30T05:55:37;12.70;99.90
14471;DHT22;7321;50.802;4.336;2024-01-30T05:58:03;12.70;99.90
14471;DHT22;7321;50.802;4.336;2024-01-30T06:00:29;12.50;99.90
14471;DHT22;7321;50.802;4.336;2024-01-30T06:02:55;12.50;99.90
14471;DHT22;7321;50.802;4.336;2024-01-30T06:05:21;12.40;99.90
14471;DHT22;7321;50.802;4.336;2024-01-30T06:07:47;12.50;99.90
14471;DHT22;7321;50.802;4.336;2024-01-30T06:10:13;12.50;99.90
14471;DHT22;7321;50.802;4.336;2024-01-30T06:12:39;12.70;99.90
14471;DHT22;7321;50.802;4.336;2024-01-30T06:15:06;12.60;99.90
14471;DHT22;7321;50.802;4.336;2024-01-30T06:17:32;12.50;99.90
14471;DHT22;7321;50.802;4.336;2024-01-30T06:19:58;12.60;99.90
14471;DHT22;7321;50.802;4.336;2024-01-30T06:22:25;12.50;99.90
14471;DHT22;7321;50.802;4.336;2024-01-30T06:24:50;12.50;99.90
14471;DHT22;7321;50.802;4.336;2024-01-30T06:27:16;12.30;99.90
14471;DHT22;7321;50.802;4.336;2024-01-30T06:29:43;12.30;99.90
14471;DHT22;7321;50.802;4.336;2024-01-30T06:32:09;12.40;99.90
14471;DHT22;7321;50.802;4.336;2024-01-30T06:34:35;12.30;99.90
14471;DHT22;7321;50.802;4.336;2024-01-30T06:37:00;12.20;99.90
14471;DHT22;7321;50.802;4.336;2024-01-30T06:39:27;12.30;99.90
14471;DHT22;7321;50.802;4.336;2024-01-30T06:41:53;12.30;99.90
14471;DHT22;7321;50.802;4.336;2024-01-30T06:44:19;12.30;99.90
14471;DHT22;7321;50.802;4.336;2024-01-30T06:46:45;12.30;99.90
14471;DHT22;7321;50.802;4.336;2024-01-30T06:49:10;12.30;99.90
14471;DHT22;7321;50.802;4.336;2024-01-30T06:51:37;12.50;99.90
14471;DHT22;7321;50.802;4.336;2024-01-30T06:54:03;12.60;99.90
14471;DHT22;7321;50.802;4.336;2024-01-30T06:56:29;12.60;99.90
14471;DHT22;7321;50.802;4.336;2024-01-30T06:58:55;12.70;99.90
14471;DHT22;7321;50.802;4.336;2024-01-30T07:01:28;12.70;99.90
14471;DHT22;7321;50.802;4.336;2024-01-30T07:03:55;12.70;99.90
14471;DHT22;7321;50.802;4.336;2024-01-30T07:06:21;12.60;99.90
14471;DHT22;7321;50.802;4.336;2024-01-30T07:08:49;12.50;99.90
14471;DHT22;7321;50.802;4.336;2024-01-30T07:11:19;12.60;99.90
14471;DHT22;7321;50.802;4.336;2024-01-30T07:13:47;12.60;99.90
14471;DHT22;7321;50.802;4.336;2024-01-30T07:16:14;12.50;99.90
14471;DHT22;7321;50.802;4.336;2024-01-30T07:18:40;12.50;99.90
14471;DHT22;7321;50.802;4.336;2024-01-30T07:21:06;12.40;99.90
14471;DHT22;7321;50.802;4.336;2024-01-30T07:23:31;12.40;99.90
14471;DHT22;7321;50.802;4.336;2024-01-30T07:25:59;12.30;99.90
14471;DHT22;7321;50.802;4.336;2024-01-30T07:28:25;12.40;99.90
14471;DHT22;7321;50.802;4.336;2024-01-30T07:30:51;12.60;99.90
14471;DHT22;7321;50.802;4.336;2024-01-30T07:33:17;12.40;99.90
14471;DHT22;7321;50.802;4.336;2024-01-30T07:35:45;12.50;99.90
14471;DHT22;7321;50.802;4.336;2024-01-30T07:38:11;12.50;99.90
14471;DHT22;7321;50.802;4.336;2024-01-30T07:40:37;12.60;99.90
14471;DHT22;7321;50.802;4.336;2024-01-30T07:43:03;12.60;99.90
14471;DHT22;7321;50.802;4.336;2024-01-30T07:45:29;12.50;99.90
14471;DHT22;7321;50.802;4.336;2024-01-30T07:47:58;12.50;99.90
14471;DHT22;7321;50.802;4.336;2024-01-30T07:50:25;12.70;99.90
14471;DHT22;7321;50.802;4.336;2024-01-30T07:52:51;12.60;99.90
14471;DHT22;7321;50.802;4.336;2024-01-30T07:55:23;12.70;99.90
14471;DHT22;7321;50.802;4.336;2024-01-30T07:57:53;12.70;99.90
14471;DHT22;7321;50.802;4.336;2024-01-30T08:00:20;12.60;99.90
14471;DHT22;7321;50.802;4.336;2024-01-30T08:02:46;12.50;99.90
14471;DHT22;7321;50.802;4.336;2024-01-30T08:05:12;12.50;99.90
14471;DHT22;7321;50.802;4.336;2024-01-30T08:07:40;12.60;99.90
14471;DHT22;7321;50.802;4.336;2024-01-30T08:10:06;12.40;99.90
14471;DHT22;7321;50.802;4.336;2024-01-30T08:12:32;12.20;99.90
14471;DHT22;7321;50.802;4.336;2024-01-30T08:14:57;12.20;99.90
14471;DHT22;7321;50.802;4.336;2024-01-30T08:17:23;12.30;99.90
14471;DHT22;7321;50.802;4.336;2024-01-30T08:19:49;12.40;99.90
14471;DHT22;7321;50.802;4.336;2024-01-30T08:22:15;12.40;99.90
14471;DHT22;7321;50.802;4.336;2024-01-30T08:24:41;12.40;99.90
14471;DHT22;7321;50.802;4.336;2024-01-30T08:27:07;12.40;99.90
14471;DHT22;7321;50.802;4.336;2024-01-30T08:29:35;12.50;99.90
14471;DHT22;7321;50.802;4.336;2024-01-30T08:32:05;12.60;99.90
14471;DHT22;7321;50.802;4.336;2024-01-30T08:34:34;12.60;99.90
14471;DHT22;7321;50.802;4.336;2024-01-30T08:37:00;12.70;99.90
14471;DHT22;7321;50.802;4.336;2024-01-30T08:39:25;12.50;99.90
14471;DHT22;7321;50.802;4.336;2024-01-30T08:41:51;12.50;99.90
14471;DHT22;7321;50.802;4.336;2024-01-30T08:44:17;12.60;99.90
14471;DHT22;7321;50.802;4.336;2024-01-30T08:46:44;12.70;99.90
14471;DHT22;7321;50.802;4.336;2024-01-30T08:49:11;12.90;99.90
14471;DHT22;7321;50.802;4.336;2024-01-30T08:51:39;12.70;99.90
14471;DHT22;7321;50.802;4.336;2024-01-30T08:54:05;12.70;99.90
14471;DHT22;7321;50.802;4.336;2024-01-30T08:56:31;12.70;99.90
14471;DHT22;7321;50.802;4.336;2024-01-30T08:58:57;12.60;99.90
14471;DHT22;7321;50.802;4.336;2024-01-30T09:01:22;12.70;99.90
14471;DHT22;7321;50.802;4.336;2024-01-30T09:03:48;12.50;99.90
14471;DHT22;7321;50.802;4.336;2024-01-30T09:06:14;12.50;99.90
14471;DHT22;7321;50.802;4.336;2024-01-30T09:08:40;12.50;99.90
14471;DHT22;7321;50.802;4.336;2024-01-30T09:11:15;12.60;99.90
14471;DHT22;7321;50.802;4.336;2024-01-30T09:13:41;12.80;99.90
14471;DHT22;7321;50.802;4.336;2024-01-30T09:16:07;12.80;99.90
14471;DHT22;7321;50.802;4.336;2024-01-30T09:18:33;12.80;99.90
14471;DHT22;7321;50.802;4.336;2024-01-30T09:20:59;12.70;99.90
14471;DHT22;7321;50.802;4.336;2024-01-30T09:23:27;12.70;99.90
14471;DHT22;7321;50.802;4.336;2024-01-30T09:25:52;12.70;99.90
14471;DHT22;7321;50.802;4.336;2024-01-30T09:28:20;12.60;99.90
14471;DHT22;7321;50.802;4.336;2024-01-30T09:30:46;12.60;99.90
14471;DHT22;7321;50.802;4.336;2024-01-30T09:33:12;12.90;99.90
14471;DHT22;7321;50.802;4.336;2024-01-30T09:35:38;13.10;99.90
14471;DHT22;7321;50.802;4.336;2024-01-30T09:38:04;12.90;99.90
14471;DHT22;7321;50.802;4.336;2024-01-30T09:40:29;12.60;99.90
14471;DHT22;7321;50.802;4.336;2024-01-30T09:42:55;12.70;99.90
14471;DHT22;7321;50.802;4.336;2024-01-30T09:45:25;12.90;99.90
14471;DHT22;7321;50.802;4.336;2024-01-30T09:47:52;12.70;99.90
14471;DHT22;7321;50.802;4.336;2024-01-30T09:50:19;12.50;99.90
14471;DHT22;7321;50.802;4.336;2024-01-30T09:52:46;12.60;99.90
14471;DHT22;7321;50.802;4.336;2024-01-30T09:55:12;12.60;99.90
14471;DHT22;7321;50.802;4.336;2024-01-30T09:57:38;12.70;99.90
14471;DHT22;7321;50.802;4.336;2024-01-30T10:00:05;12.70;99.90
14471;DHT22;7321;50.802;4.336;2024-01-30T10:02:35;12.50;99.90
14471;DHT22;7321;50.802;4.336;2024-01-30T10:05:01;12.40;99.90
14471;DHT22;7321;50.802;4.336;2024-01-30T10:07:27;12.30;99.90
14471;DHT22;7321;50.802;4.336;2024-01-30T10:09:53;12.40;99.90
14471;DHT22;7321;50.802;4.336;2024-01-30T10:12:22;12.40;99.90
14471;DHT22;7321;50.802;4.336;2024-01-30T10:14:48;12.40;99.90
14471;DHT22;7321;50.802;4.336;2024-01-30T10:17:14;12.40;99.90
14471;DHT22;7321;50.802;4.336;2024-01-30T10:19:40;12.40;99.90
14471;DHT22;7321;50.802;4.336;2024-01-30T10:22:07;12.40;99.90
14471;DHT22;7321;50.802;4.336;2024-01-30T10:24:36;12.30;99.90
14471;DHT22;7321;50.802;4.336;2024-01-30T10:27:02;12.40;99.90
14471;DHT22;7321;50.802;4.336;2024-01-30T10:29:29;12.40;99.90
14471;DHT22;7321;50.802;4.336;2024-01-30T10:32:01;12.50;99.90
14471;DHT22;7321;50.802;4.336;2024-01-30T10:34:27;12.50;99.90
14471;DHT22;7321;50.802;4.336;2024-01-30T10:37:13;12.20;99.90
14471;DHT22;7321;50.802;4.336;2024-01-30T10:39:46;12.10;99.90
14471;DHT22;7321;50.802;4.336;2024-01-30T10:42:13;12.10;99.90
14471;DHT22;7321;50.802;4.336;2024-01-30T10:45:06;12.20;99.90
14471;DHT22;7321;50.802;4.336;2024-01-30T10:47:30;12.30;99.90
14471;DHT22;7321;50.802;4.336;2024-01-30T10:49:56;12.10;99.90
14471;DHT22;7321;50.802;4.336;2024-01-30T10:52:25;12.10;99.90
14471;DHT22;7321;50.802;4.336;2024-01-30T10:54:53;12.10;99.90
14471;DHT22;7321;50.802;4.336;2024-01-30T10:57:19;12.10;99.90
14471;DHT22;7321;50.802;4.336;2024-01-30T10:59:48;12.00;99.90
14471;DHT22;7321;50.802;4.336;2024-01-30T11:02:15;12.00;99.90
14471;DHT22;7321;50.802;4.336;2024-01-30T11:04:43;11.80;99.90
14471;DHT22;7321;50.802;4.336;2024-01-30T11:09:53;11.90;99.90
14471;DHT22;7321;50.802;4.336;2024-01-30T11:12:26;11.90;99.90
14471;DHT22;7321;50.802;4.336;2024-01-30T11:15:14;11.90;99.90
14471;DHT22;7321;50.802;4.336;2024-01-30T11:17:44;11.90;99.90
14471;DHT22;7321;50.802;4.336;2024-01-30T11:20:25;11.80;99.90
14471;DHT22;7321;50.802;4.336;2024-01-30T11:22:55;11.80;99.90
14471;DHT22;7321;50.802;4.336;2024-01-30T11:25:22;11.70;99.90
14471;DHT22;7321;50.802;4.336;2024-01-30T11:27:53;11.80;99.90
14471;DHT22;7321;50.802;4.336;2024-01-30T11:30:27;11.80;99.90
14471;DHT22;7321;50.802;4.336;2024-01-30T11:33:06;11.60;99.90
14471;DHT22;7321;50.802;4.336;2024-01-30T11:35:44;11.60;99.90
14471;DHT22;7321;50.802;4.336;2024-01-30T11:38:14;11.70;99.90
14471;DHT22;7321;50.802;4.336;2024-01-30T11:40:44;11.70;99.90
14471;DHT22;7321;50.802;4.336;2024-01-30T11:43:10;11.80;99.90
14471;DHT22;7321;50.802;4.336;2024-01-30T11:45:36;11.70;99.90
14471;DHT22;7321;50.802;4.336;2024-01-30T11:48:02;11.70;99.90
14471;DHT22;7321;50.802;4.336;2024-01-30T11:50:30;11.80;99.90
14471;DHT22;7321;50.802;4.336;2024-01-30T11:52:56;11.70;99.90
14471;DHT22;7321;50.802;4.336;2024-01-30T11:55:23;11.70;99.90
14471;DHT22;7321;50.802;4.336;2024-01-30T11:57:58;11.70;99.90
14471;DHT22;7321;50.802;4.336;2024-01-30T12:00:30;11.80;99.90
14471;DHT22;7321;50.802;4.336;2024-01-30T12:03:02;11.80;99.90
14471;DHT22;7321;50.802;4.336;2024-01-30T12:05:28;11.80;99.90
14471;DHT22;7321;50.802;4.336;2024-01-30T12:07:55;11.70;99.90
14471;DHT22;7321;50.802;4.336;2024-01-30T12:10:27;11.70;99.90
14471;DHT22;7321;50.802;4.336;2024-01-30T12:12:53;11.60;99.90
14471;DHT22;7321;50.802;4.336;2024-01-30T12:15:21;11.60;99.90
14471;DHT22;7321;50.802;4.336;2024-01-30T12:17:47;11.60;99.90
14471;DHT22;7321;50.802;4.336;2024-01-30T12:20:20;11.50;99.90
14471;DHT22;7321;50.802;4.336;2024-01-30T12:22:48;11.40;99.90
14471;DHT22;7321;50.802;4.336;2024-01-30T12:25:16;11.30;99.90
14471;DHT22;7321;50.802;4.336;2024-01-30T12:27:43;11.40;99.90
14471;DHT22;7321;50.802;4.336;2024-01-30T12:30:11;11.50;99.90
14471;DHT22;7321;50.802;4.336;2024-01-30T12:32:39;11.60;99.90
14471;DHT22;7321;50.802;4.336;2024-01-30T12:35:12;11.60;99.90
14471;DHT22;7321;50.802;4.336;2024-01-30T12:37:39;11.70;99.90
14471;DHT22;7321;50.802;4.336;2024-01-30T12:40:08;11.70;99.90
14471;DHT22;7321;50.802;4.336;2024-01-30T12:42:35;11.80;99.90
14471;DHT22;7321;50.802;4.336;2024-01-30T12:45:05;12.00;99.90
14471;DHT22;7321;50.802;4.336;2024-01-30T12:47:31;12.00;99.90
14471;DHT22;7321;50.802;4.336;2024-01-30T12:49:58;12.00;99.90
14471;DHT22;7321;50.802;4.336;2024-01-30T12:52:24;12.00;99.90
14471;DHT22;7321;50.802;4.336;2024-01-30T12:54:50;11.90;99.90
14471;DHT22;7321;50.802;4.336;2024-01-30T12:57:17;11.80;99.90
14471;DHT22;7321;50.802;4.336;2024-01-30T12:59:44;11.50;99.90
14471;DHT22;7321;50.802;4.336;2024-01-30T13:02:11;11.50;99.90
14471;DHT22;7321;50.802;4.336;2024-01-30T13:04:37;11.40;99.90
14471;DHT22;7321;50.802;4.336;2024-01-30T13:07:03;11.40;99.90
14471;DHT22;7321;50.802;4.336;2024-01-30T13:09:30;11.50;99.90
14471;DHT22;7321;50.802;4.336;2024-01-30T13:11:57;11.80;99.90
14471;DHT22;7321;50.802;4.336;2024-01-30T13:14:24;11.90;99.90
14471;DHT22;7321;50.802;4.336;2024-01-30T13:16:49;11.90;99.90
14471;DHT22;7321;50.802;4.336;2024-01-30T13:19:16;12.00;99.90
14471;DHT22;7321;50.802;4.336;2024-01-30T13:21:42;12.00;99.90
14471;DHT22;7321;50.802;4.336;2024-01-30T13:24:08;12.00;99.90
14471;DHT22;7321;50.802;4.336;2024-01-30T13:26:35;12.10;99.90
14471;DHT22;7321;50.802;4.336;2024-01-30T13:29:04;12.00;99.90
14471;DHT22;7321;50.802;4.336;2024-01-30T13:31:29;11.80;99.90
14471;DHT22;7321;50.802;4.336;2024-01-30T13:33:55;11.60;99.90
14471;DHT22;7321;50.802;4.336;2024-01-30T13:36:21;11.70;99.90
14471;DHT22;7321;50.802;4.336;2024-01-30T13:38:50;11.90;99.90
14471;DHT22;7321;50.802;4.336;2024-01-30T13:41:15;11.80;99.90
14471;DHT22;7321;50.802;4.336;2024-01-30T13:43:43;11.90;99.90
14471;DHT22;7321;50.802;4.336;2024-01-30T13:46:10;12.10;99.90
14471;DHT22;7321;50.802;4.336;2024-01-30T13:48:36;12.10;99.90
14471;DHT22;7321;50.802;4.336;2024-01-30T13:51:01;11.80;99.90
14471;DHT22;7321;50.802;4.336;2024-01-30T13:53:27;11.70;99.90
14471;DHT22;7321;50.802;4.336;2024-01-30T13:55:53;11.60;99.90
14471;DHT22;7321;50.802;4.336;2024-01-30T13:58:19;11.60;99.90
14471;DHT22;7321;50.802;4.336;2024-01-30T14:00:45;11.50;99.90
14471;DHT22;7321;50.802;4.336;2024-01-30T14:03:11;11.60;99.90
14471;DHT22;7321;50.802;4.336;2024-01-30T14:05:37;11.60;99.90
14471;DHT22;7321;50.802;4.336;2024-01-30T14:08:03;11.70;99.90
14471;DHT22;7321;50.802;4.336;2024-01-30T14:10:29;11.60;99.90
14471;DHT22;7321;50.802;4.336;2024-01-30T14:12:55;11.50;99.90
14471;DHT22;7321;50.802;4.336;2024-01-30T14:15:22;11.20;99.90
14471;DHT22;7321;50.802;4.336;2024-01-30T14:17:47;11.20;99.90
14471;DHT22;7321;50.802;4.336;2024-01-30T14:20:15;11.30;99.90
14471;DHT22;7321;50.802;4.336;2024-01-30T14:22:44;11.20;99.90
14471;DHT22;7321;50.802;4.336;2024-01-30T14:25:10;11.20;99.90
14471;DHT22;7321;50.802;4.336;2024-01-30T14:27:36;11.10;99.90
14471;DHT22;7321;50.802;4.336;2024-01-30T14:30:02;11.10;99.90
14471;DHT22;7321;50.802;4.336;2024-01-30T14:32:29;11.10;99.90
14471;DHT22;7321;50.802;4.336;2024-01-30T14:34:54;11.10;99.90
14471;DHT22;7321;50.802;4.336;2024-01-30T14:37:21;11.20;99.90
14471;DHT22;7321;50.802;4.336;2024-01-30T14:39:47;11.10;99.90
14471;DHT22;7321;50.802;4.336;2024-01-30T14:42:14;11.00;99.90
14471;DHT22;7321;50.802;4.336;2024-01-30T14:44:40;11.10;99.90
14471;DHT22;7321;50.802;4.336;2024-01-30T14:47:06;11.30;99.90
14471;DHT22;7321;50.802;4.336;2024-01-30T14:49:32;11.40;99.90
14471;DHT22;7321;50.802;4.336;2024-01-30T14:51:57;11.40;99.90
14471;DHT22;7321;50.802;4.336;2024-01-30T14:54:26;11.30;99.90
14471;DHT22;7321;50.802;4.336;2024-01-30T14:56:53;11.10;99.90
14471;DHT22;7321;50.802;4.336;2024-01-30T14:59:19;10.90;99.90
14471;DHT22;7321;50.802;4.336;2024-01-30T15:01:45;10.90;99.90
14471;DHT22;7321;50.802;4.336;2024-01-30T15:04:11;10.90;99.90
14471;DHT22;7321;50.802;4.336;2024-01-30T15:06:37;11.00;99.90
14471;DHT22;7321;50.802;4.336;2024-01-30T15:09:03;10.90;99.90
14471;DHT22;7321;50.802;4.336;2024-01-30T15:11:29;10.70;99.90
14471;DHT22;7321;50.802;4.336;2024-01-30T15:13:56;10.60;99.90
14471;DHT22;7321;50.802;4.336;2024-01-30T15:16:22;10.60;99.90
14471;DHT22;7321;50.802;4.336;2024-01-30T15:18:48;10.70;99.90
14471;DHT22;7321;50.802;4.336;2024-01-30T15:21:13;10.90;99.90
14471;DHT22;7321;50.802;4.336;2024-01-30T15:23:40;10.90;99.90
14471;DHT22;7321;50.802;4.336;2024-01-30T15:26:06;10.90;99.90
14471;DHT22;7321;50.802;4.336;2024-01-30T15:28:36;10.70;99.90
14471;DHT22;7321;50.802;4.336;2024-01-30T15:31:03;10.50;99.90
14471;DHT22;7321;50.802;4.336;2024-01-30T15:33:29;10.50;99.90
14471;DHT22;7321;50.802;4.336;2024-01-30T15:35:55;10.40;99.90
14471;DHT22;7321;50.802;4.336;2024-01-30T15:38:21;10.40;99.90
14471;DHT22;7321;50.802;4.336;2024-01-30T15:40:47;10.50;99.90
14471;DHT22;7321;50.802;4.336;2024-01-30T15:43:13;10.60;99.90
14471;DHT22;7321;50.802;4.336;2024-01-30T15:45:38;10.50;99.90